sensor_id;sensor_type;location;lat;lon;timestamp;temperature;humidity
70421;SHT31;57848;51.938;15.520;2023-08-06T00:02:00;15.50;95.12
70421;SHT31;57848;51.938;15.520;2023-08-06T00:04:26;15.51;95.05
70421;SHT31;57848;51.938;15.520;2023-08-06T00:06:51;15.53;94.97
70421;SHT31;57848;51.938;15.520;2023-08-06T00:09:17;15.53;94.45
70421;SHT31;57848;51.938;15.520;2023-08-06T00:11:42;15.47;94.96
70421;SHT31;57848;51.938;15.520;2023-08-06T00:14:09;15.50;95.32
70421;SHT31;57848;51.938;15.520;2023-08-06T00:16:35;15.50;95.25
70421;SHT31;57848;51.938;15.520;2023-08-06T00:19:00;15.47;95.10
70421;SHT31;57848;51.938;15.520;2023-08-06T00:21:25;15.50;94.99
70421;SHT31;57848;51.938;15.520;2023-08-06T00:23:50;15.50;95.41
70421;SHT31;57848;51.938;15.520;2023-08-06T00:26:17;15.50;95.55
70421;SHT31;57848;51.938;15.520;2023-08-06T00:28:43;15.44;95.22
70421;SHT31;57848;51.938;15.520;2023-08-06T00:31:08;15.54;95.32
70421;SHT31;57848;51.938;15.520;2023-08-06T00:33:33;15.41;95.02
70421;SHT31;57848;51.938;15.520;2023-08-06T00:35:59;15.46;95.24
70421;SHT31;57848;51.938;15.520;2023-08-06T00:38:24;15.51;95.11
70421;SHT31;57848;51.938;15.520;2023-08-06T00:40:49;15.50;95.05
70421;SHT31;57848;51.938;15.520;2023-08-06T00:43:15;15.41;95.07
70421;SHT31;57848;51.938;15.520;2023-08-06T00:45:40;15.41;95.18
70421;SHT31;57848;51.938;15.520;2023-08-06T00:48:06;15.41;95.42
70421;SHT31;57848;51.938;15.520;2023-08-06T00:50:32;15.44;95.25
70421;SHT31;57848;51.938;15.520;2023-08-06T00:52:58;15.39;95.10
70421;SHT31;57848;51.938;15.520;2023-08-06T00:55:24;15.36;95.37
70421;SHT31;57848;51.938;15.520;2023-08-06T00:57:50;15.29;95.50
70421;SHT31;57848;51.938;15.520;2023-08-06T01:00:16;15.29;95.72
70421;SHT31;57848;51.938;15.520;2023-08-06T01:02:42;15.30;95.59
70421;SHT31;57848;51.938;15.520;2023-08-06T01:05:08;15.26;95.43
70421;SHT31;57848;51.938;15.520;2023-08-06T01:07:46;15.29;95.48
70421;SHT31;57848;51.938;15.520;2023-08-06T01:10:44;15.26;95.77
70421;SHT31;57848;51.938;15.520;2023-08-06T01:15:46;15.24;95.80
70421;SHT31;57848;51.938;15.520;2023-08-06T01:18:14;15.31;95.59
70421;SHT31;57848;51.938;15.520;2023-08-06T01:20:40;15.30;95.51
70421;SHT31;57848;51.938;15.520;2023-08-06T01:23:05;15.23;95.51
70421;SHT31;57848;51.938;15.520;2023-08-06T01:25:37;15.23;95.51
70421;SHT31;57848;51.938;15.520;2023-08-06T01:28:18;15.23;95.36
70421;SHT31;57848;51.938;15.520;2023-08-06T01:30:49;15.23;95.47
70421;SHT31;57848;51.938;15.520;2023-08-06T01:33:19;15.24;95.49
70421;SHT31;57848;51.938;15.520;2023-08-06T01:35:47;15.19;95.18
70421;SHT31;57848;51.938;15.520;2023-08-06T01:38:14;15.20;95.67
70421;SHT31;57848;51.938;15.520;2023-08-06T01:40:39;15.16;95.63
70421;SHT31;57848;51.938;15.520;2023-08-06T01:43:04;15.16;95.77
70421;SHT31;57848;51.938;15.520;2023-08-06T01:45:30;15.17;95.46
70421;SHT31;57848;51.938;15.520;2023-08-06T01:47:55;15.19;95.58
70421;SHT31;57848;51.938;15.520;2023-08-06T01:50:22;15.16;95.48
70421;SHT31;57848;51.938;15.520;2023-08-06T01:52:47;15.17;95.70
70421;SHT31;57848;51.938;15.520;2023-08-06T01:55:13;15.16;95.42
70421;SHT31;57848;51.938;15.520;2023-08-06T01:57:38;15.16;95.47
70421;SHT31;57848;51.938;15.520;2023-08-06T02:00:04;15.16;95.42
70421;SHT31;57848;51.938;15.520;2023-08-06T02:02:38;15.20;95.33
70421;SHT31;57848;51.938;15.520;2023-08-06T02:05:03;15.22;95.19
70421;SHT31;57848;51.938;15.520;2023-08-06T02:07:29;15.17;95.38
70421;SHT31;57848;51.938;15.520;2023-08-06T02:09:55;15.11;95.60
70421;SHT31;57848;51.938;15.520;2023-08-06T02:12:21;15.11;95.69
70421;SHT31;57848;51.938;15.520;2023-08-06T02:14:46;15.10;95.81
70421;SHT31;57848;51.938;15.520;2023-08-06T02:17:11;15.03;95.87
70421;SHT31;57848;51.938;15.520;2023-08-06T02:19:37;15.02;96.05
70421;SHT31;57848;51.938;15.520;2023-08-06T02:22:02;15.03;96.11
70421;SHT31;57848;51.938;15.520;2023-08-06T02:24:27;15.06;95.63
70421;SHT31;57848;51.938;15.520;2023-08-06T02:26:53;15.07;96.04
70421;SHT31;57848;51.938;15.520;2023-08-06T02:29:20;15.02;96.07
70421;SHT31;57848;51.938;15.520;2023-08-06T02:31:46;15.09;95.87
70421;SHT31;57848;51.938;15.520;2023-08-06T02:34:11;15.07;96.09
70421;SHT31;57848;51.938;15.520;2023-08-06T02:36:37;15.07;96.12
70421;SHT31;57848;51.938;15.520;2023-08-06T02:39:02;15.10;95.77
70421;SHT31;57848;51.938;15.520;2023-08-06T02:41:29;15.14;95.75
70421;SHT31;57848;51.938;15.520;2023-08-06T02:43:56;15.07;96.05
70421;SHT31;57848;51.938;15.520;2023-08-06T02:46:21;15.06;96.08
70421;SHT31;57848;51.938;15.520;2023-08-06T02:48:48;15.03;96.06
70421;SHT31;57848;51.938;15.520;2023-08-06T02:51:14;15.02;95.98
70421;SHT31;57848;51.938;15.520;2023-08-06T02:53:40;15.04;95.75
70421;SHT31;57848;51.938;15.520;2023-08-06T02:56:08;15.04;95.99
70421;SHT31;57848;51.938;15.520;2023-08-06T02:58:45;15.06;95.97
70421;SHT31;57848;51.938;15.520;2023-08-06T03:01:24;15.03;95.95
70421;SHT31;57848;51.938;15.520;2023-08-06T03:03:56;14.98;96.12
70421;SHT31;57848;51.938;15.520;2023-08-06T03:06:27;15.00;96.26
70421;SHT31;57848;51.938;15.520;2023-08-06T03:08:55;14.99;96.22
70421;SHT31;57848;51.938;15.520;2023-08-06T03:11:21;14.99;96.45
70421;SHT31;57848;51.938;15.520;2023-08-06T03:13:49;14.98;96.38
70421;SHT31;57848;51.938;15.520;2023-08-06T03:16:15;14.95;96.47
70421;SHT31;57848;51.938;15.520;2023-08-06T03:18:41;14.88;96.67
70421;SHT31;57848;51.938;15.520;2023-08-06T03:21:08;14.89;96.51
70421;SHT31;57848;51.938;15.520;2023-08-06T03:23:33;14.90;96.34
70421;SHT31;57848;51.938;15.520;2023-08-06T03:26:02;14.90;96.76
70421;SHT31;57848;51.938;15.520;2023-08-06T03:28:30;14.90;96.78
70421;SHT31;57848;51.938;15.520;2023-08-06T03:31:00;14.92;96.38
70421;SHT31;57848;51.938;15.520;2023-08-06T03:33:26;14.90;96.51
70421;SHT31;57848;51.938;15.520;2023-08-06T03:35:52;14.90;96.57
70421;SHT31;57848;51.938;15.520;2023-08-06T03:38:18;14.95;96.22
70421;SHT31;57848;51.938;15.520;2023-08-06T03:40:44;14.75;96.41
70421;SHT31;57848;51.938;15.520;2023-08-06T03:43:09;14.86;96.50
70421;SHT31;57848;51.938;15.520;2023-08-06T03:45:35;14.88;96.67
70421;SHT31;57848;51.938;15.520;2023-08-06T03:48:00;14.83;96.78
70421;SHT31;57848;51.938;15.520;2023-08-06T03:50:25;14.96;96.69
70421;SHT31;57848;51.938;15.520;2023-08-06T03:52:51;14.86;96.49
70421;SHT31;57848;51.938;15.520;2023-08-06T03:55:16;14.85;96.49
70421;SHT31;57848;51.938;15.520;2023-08-06T03:57:42;14.86;96.54
70421;SHT31;57848;51.938;15.520;2023-08-06T04:00:08;14.85;96.74
70421;SHT31;57848;51.938;15.520;2023-08-06T04:02:40;14.82;96.61
70421;SHT31;57848;51.938;15.520;2023-08-06T04:05:05;14.82;96.88
70421;SHT31;57848;51.938;15.520;2023-08-06T04:07:31;14.79;96.97
70421;SHT31;57848;51.938;15.520;2023-08-06T04:09:58;14.82;96.83
70421;SHT31;57848;51.938;15.520;2023-08-06T04:12:24;14.82;96.70
70421;SHT31;57848;51.938;15.520;2023-08-06T04:14:51;14.82;96.76
70421;SHT31;57848;51.938;15.520;2023-08-06T04:17:20;14.71;96.78
70421;SHT31;57848;51.938;15.520;2023-08-06T04:19:54;14.65;97.04
70421;SHT31;57848;51.938;15.520;2023-08-06T04:22:20;14.72;97.28
70421;SHT31;57848;51.938;15.520;2023-08-06T04:24:46;14.79;96.92
70421;SHT31;57848;51.938;15.520;2023-08-06T04:27:12;14.76;96.76
70421;SHT31;57848;51.938;15.520;2023-08-06T04:29:38;14.68;96.89
70421;SHT31;57848;51.938;15.520;2023-08-06T04:32:07;14.71;97.13
70421;SHT31;57848;51.938;15.520;2023-08-06T04:34:35;14.68;97.32
70421;SHT31;57848;51.938;15.520;2023-08-06T04:37:01;14.78;97.09
70421;SHT31;57848;51.938;15.520;2023-08-06T04:39:26;14.78;97.03
70421;SHT31;57848;51.938;15.520;2023-08-06T04:41:52;14.75;96.95
70421;SHT31;57848;51.938;15.520;2023-08-06T04:44:18;14.82;96.76
70421;SHT31;57848;51.938;15.520;2023-08-06T04:46:43;14.71;96.89
70421;SHT31;57848;51.938;15.520;2023-08-06T04:49:08;14.64;96.98
70421;SHT31;57848;51.938;15.520;2023-08-06T04:51:34;14.72;97.11
70421;SHT31;57848;51.938;15.520;2023-08-06T04:53:59;14.76;97.17
70421;SHT31;57848;51.938;15.520;2023-08-06T04:56:25;14.73;97.07
70421;SHT31;57848;51.938;15.520;2023-08-06T04:58:50;14.68;97.12
70421;SHT31;57848;51.938;15.520;2023-08-06T05:01:16;14.71;96.98
70421;SHT31;57848;51.938;15.520;2023-08-06T05:03:41;14.69;97.03
70421;SHT31;57848;51.938;15.520;2023-08-06T05:06:07;14.72;97.03
70421;SHT31;57848;51.938;15.520;2023-08-06T05:08:32;14.73;97.13
70421;SHT31;57848;51.938;15.520;2023-08-06T05:10:58;14.67;97.27
70421;SHT31;57848;51.938;15.520;2023-08-06T05:13:23;14.71;97.28
70421;SHT31;57848;51.938;15.520;2023-08-06T05:15:49;14.67;97.25
70421;SHT31;57848;51.938;15.520;2023-08-06T05:18:14;14.71;97.13
70421;SHT31;57848;51.938;15.520;2023-08-06T05:20:41;14.72;97.11
70421;SHT31;57848;51.938;15.520;2023-08-06T05:23:06;14.78;96.95
70421;SHT31;57848;51.938;15.520;2023-08-06T05:25:32;14.73;96.79
70421;SHT31;57848;51.938;15.520;2023-08-06T05:27:59;14.72;96.78
70421;SHT31;57848;51.938;15.520;2023-08-06T05:30:26;14.76;96.96
70421;SHT31;57848;51.938;15.520;2023-08-06T05:32:52;14.75;97.12
70421;SHT31;57848;51.938;15.520;2023-08-06T05:35:17;14.78;97.10
70421;SHT31;57848;51.938;15.520;2023-08-06T05:37:42;14.71;97.04
70421;SHT31;57848;51.938;15.520;2023-08-06T05:40:08;14.73;97.14
70421;SHT31;57848;51.938;15.520;2023-08-06T05:42:33;14.76;97.12
70421;SHT31;57848;51.938;15.520;2023-08-06T05:44:58;14.76;96.91
70421;SHT31;57848;51.938;15.520;2023-08-06T05:47:24;14.79;97.16
70421;SHT31;57848;51.938;15.520;2023-08-06T05:49:49;14.80;96.93
70421;SHT31;57848;51.938;15.520;2023-08-06T05:52:14;14.83;96.78
70421;SHT31;57848;51.938;15.520;2023-08-06T05:54:40;14.86;96.91
70421;SHT31;57848;51.938;15.520;2023-08-06T05:57:06;14.88;96.53
70421;SHT31;57848;51.938;15.520;2023-08-06T05:59:31;14.79;96.79
70421;SHT31;57848;51.938;15.520;2023-08-06T06:01:57;14.72;96.86
70421;SHT31;57848;51.938;15.520;2023-08-06T06:04:22;14.80;96.70
70421;SHT31;57848;51.938;15.520;2023-08-06T06:06:47;14.78;96.73
70421;SHT31;57848;51.938;15.520;2023-08-06T06:09:13;14.72;96.90
70421;SHT31;57848;51.938;15.520;2023-08-06T06:11:38;14.73;96.92
70421;SHT31;57848;51.938;15.520;2023-08-06T06:14:03;14.71;97.37
70421;SHT31;57848;51.938;15.520;2023-08-06T06:16:28;14.76;97.09
70421;SHT31;57848;51.938;15.520;2023-08-06T06:18:54;14.82;97.31
70421;SHT31;57848;51.938;15.520;2023-08-06T06:21:20;14.73;97.42
70421;SHT31;57848;51.938;15.520;2023-08-06T06:23:45;14.83;97.44
70421;SHT31;57848;51.938;15.520;2023-08-06T06:26:10;14.86;96.92
70421;SHT31;57848;51.938;15.520;2023-08-06T06:28:36;14.79;97.02
70421;SHT31;57848;51.938;15.520;2023-08-06T06:31:01;14.71;97.21
70421;SHT31;57848;51.938;15.520;2023-08-06T06:33:27;14.79;97.26
70421;SHT31;57848;51.938;15.520;2023-08-06T06:35:52;14.82;97.28
70421;SHT31;57848;51.938;15.520;2023-08-06T06:38:18;14.82;97.19
70421;SHT31;57848;51.938;15.520;2023-08-06T06:40:43;14.85;97.02
70421;SHT31;57848;51.938;15.520;2023-08-06T06:43:08;14.82;97.46
70421;SHT31;57848;51.938;15.520;2023-08-06T06:45:33;14.83;97.17
70421;SHT31;57848;51.938;15.520;2023-08-06T06:47:59;14.83;97.05
70421;SHT31;57848;51.938;15.520;2023-08-06T06:50:24;14.86;97.28
70421;SHT31;57848;51.938;15.520;2023-08-06T06:52:51;14.89;97.29
70421;SHT31;57848;51.938;15.520;2023-08-06T06:55:16;14.93;97.05
70421;SHT31;57848;51.938;15.520;2023-08-06T06:57:42;14.93;96.97
70421;SHT31;57848;51.938;15.520;2023-08-06T07:00:07;14.85;97.24
70421;SHT31;57848;51.938;15.520;2023-08-06T07:02:33;14.85;97.05
70421;SHT31;57848;51.938;15.520;2023-08-06T07:04:58;14.93;97.22
70421;SHT31;57848;51.938;15.520;2023-08-06T07:07:23;14.93;97.28
70421;SHT31;57848;51.938;15.520;2023-08-06T07:09:49;14.86;97.03
70421;SHT31;57848;51.938;15.520;2023-08-06T07:12:14;14.88;97.47
70421;SHT31;57848;51.938;15.520;2023-08-06T07:14:39;14.89;97.27
70421;SHT31;57848;51.938;15.520;2023-08-06T07:17:05;14.86;97.18
70421;SHT31;57848;51.938;15.520;2023-08-06T07:19:30;14.89;97.47
70421;SHT31;57848;51.938;15.520;2023-08-06T07:21:56;14.85;97.10
70421;SHT31;57848;51.938;15.520;2023-08-06T07:24:21;14.90;97.30
70421;SHT31;57848;51.938;15.520;2023-08-06T07:26:46;14.95;97.46
70421;SHT31;57848;51.938;15.520;2023-08-06T07:29:12;14.96;97.32
70421;SHT31;57848;51.938;15.520;2023-08-06T07:31:37;15.03;97.18
70421;SHT31;57848;51.938;15.520;2023-08-06T07:34:02;14.98;97.27
70421;SHT31;57848;51.938;15.520;2023-08-06T07:36:28;14.90;97.13
70421;SHT31;57848;51.938;15.520;2023-08-06T07:38:53;15.03;97.09
70421;SHT31;57848;51.938;15.520;2023-08-06T07:41:24;14.93;97.40
70421;SHT31;57848;51.938;15.520;2023-08-06T07:43:50;14.99;97.40
70421;SHT31;57848;51.938;15.520;2023-08-06T07:46:16;14.93;97.54
70421;SHT31;57848;51.938;15.520;2023-08-06T07:48:41;14.96;97.70
70421;SHT31;57848;51.938;15.520;2023-08-06T07:51:06;14.90;97.63
70421;SHT31;57848;51.938;15.520;2023-08-06T07:53:31;14.92;97.70
70421;SHT31;57848;51.938;15.520;2023-08-06T07:55:57;15.00;97.92
70421;SHT31;57848;51.938;15.520;2023-08-06T07:58:24;14.93;97.57
70421;SHT31;57848;51.938;15.520;2023-08-06T08:00:49;14.99;97.31
70421;SHT31;57848;51.938;15.520;2023-08-06T08:03:16;14.99;97.51
70421;SHT31;57848;51.938;15.520;2023-08-06T08:05:42;15.00;97.62
70421;SHT31;57848;51.938;15.520;2023-08-06T08:08:08;15.00;97.51
70421;SHT31;57848;51.938;15.520;2023-08-06T08:10:34;15.02;97.78
70421;SHT31;57848;51.938;15.520;2023-08-06T08:13:00;14.99;97.96
70421;SHT31;57848;51.938;15.520;2023-08-06T08:15:28;15.00;97.82
70421;SHT31;57848;51.938;15.520;2023-08-06T08:17:53;15.04;97.61
70421;SHT31;57848;51.938;15.520;2023-08-06T08:20:18;15.06;97.88
70421;SHT31;57848;51.938;15.520;2023-08-06T08:22:44;15.02;98.06
70421;SHT31;57848;51.938;15.520;2023-08-06T08:25:09;15.13;98.03
70421;SHT31;57848;51.938;15.520;2023-08-06T08:27:34;15.10;98.07
70421;SHT31;57848;51.938;15.520;2023-08-06T08:30:00;15.11;97.96
70421;SHT31;57848;51.938;15.520;2023-08-06T08:32:25;15.16;97.71
70421;SHT31;57848;51.938;15.520;2023-08-06T08:34:50;15.14;97.94
70421;SHT31;57848;51.938;15.520;2023-08-06T08:37:16;15.11;97.60
70421;SHT31;57848;51.938;15.520;2023-08-06T08:39:41;15.14;97.64
70421;SHT31;57848;51.938;15.520;2023-08-06T08:42:06;15.13;97.59
70421;SHT31;57848;51.938;15.520;2023-08-06T08:44:32;15.20;97.75
70421;SHT31;57848;51.938;15.520;2023-08-06T08:46:59;15.13;97.72
70421;SHT31;57848;51.938;15.520;2023-08-06T08:49:26;15.16;97.66
70421;SHT31;57848;51.938;15.520;2023-08-06T08:51:53;15.17;97.63
70421;SHT31;57848;51.938;15.520;2023-08-06T08:54:20;15.17;97.60
70421;SHT31;57848;51.938;15.520;2023-08-06T08:56:48;15.17;97.52
70421;SHT31;57848;51.938;15.520;2023-08-06T08:59:13;15.19;97.80
70421;SHT31;57848;51.938;15.520;2023-08-06T09:01:39;15.24;97.56
70421;SHT31;57848;51.938;15.520;2023-08-06T09:04:06;15.23;97.15
70421;SHT31;57848;51.938;15.520;2023-08-06T09:06:35;15.23;97.14
70421;SHT31;57848;51.938;15.520;2023-08-06T09:09:17;15.24;97.61
70421;SHT31;57848;51.938;15.520;2023-08-06T09:11:47;15.31;97.54
70421;SHT31;57848;51.938;15.520;2023-08-06T09:14:14;15.26;97.41
70421;SHT31;57848;51.938;15.520;2023-08-06T09:16:40;15.31;97.76
70421;SHT31;57848;51.938;15.520;2023-08-06T09:19:12;15.34;97.39
70421;SHT31;57848;51.938;15.520;2023-08-06T09:21:39;15.44;97.27
70421;SHT31;57848;51.938;15.520;2023-08-06T09:24:08;15.48;97.33
70421;SHT31;57848;51.938;15.520;2023-08-06T09:26:34;15.46;96.98
70421;SHT31;57848;51.938;15.520;2023-08-06T09:29:00;15.44;96.98
70421;SHT31;57848;51.938;15.520;2023-08-06T09:31:32;15.40;97.41
70421;SHT31;57848;51.938;15.520;2023-08-06T09:33:59;15.43;96.92
70421;SHT31;57848;51.938;15.520;2023-08-06T09:36:27;15.37;97.11
70421;SHT31;57848;51.938;15.520;2023-08-06T09:38:52;15.36;97.26
70421;SHT31;57848;51.938;15.520;2023-08-06T09:41:26;15.31;97.20
70421;SHT31;57848;51.938;15.520;2023-08-06T09:43:55;15.30;97.07
70421;SHT31;57848;51.938;15.520;2023-08-06T09:46:20;15.37;97.21
70421;SHT31;57848;51.938;15.520;2023-08-06T09:48:47;15.39;97.27
70421;SHT31;57848;51.938;15.520;2023-08-06T09:51:13;15.37;97.08
70421;SHT31;57848;51.938;15.520;2023-08-06T09:53:40;15.36;97.33
70421;SHT31;57848;51.938;15.520;2023-08-06T09:56:05;15.30;97.33
70421;SHT31;57848;51.938;15.520;2023-08-06T09:58:32;15.37;97.58
70421;SHT31;57848;51.938;15.520;2023-08-06T10:00:59;15.43;97.24
70421;SHT31;57848;51.938;15.520;2023-08-06T10:03:25;15.50;96.98
70421;SHT31;57848;51.938;15.520;2023-08-06T10:05:51;15.37;97.42
70421;SHT31;57848;51.938;15.520;2023-08-06T10:08:16;15.40;97.08
70421;SHT31;57848;51.938;15.520;2023-08-06T10:10:42;15.43;97.32
70421;SHT31;57848;51.938;15.520;2023-08-06T10:13:09;15.53;97.15
70421;SHT31;57848;51.938;15.520;2023-08-06T10:15:36;15.46;97.04
70421;SHT31;57848;51.938;15.520;2023-08-06T10:18:04;15.43;97.09
70421;SHT31;57848;51.938;15.520;2023-08-06T10:20:36;15.47;97.21
70421;SHT31;57848;51.938;15.520;2023-08-06T10:23:06;15.50;97.25
70421;SHT31;57848;51.938;15.520;2023-08-06T10:25:35;15.44;97.38
70421;SHT31;57848;51.938;15.520;2023-08-06T10:28:08;15.54;97.30
70421;SHT31;57848;51.938;15.520;2023-08-06T10:30:41;15.54;97.04
70421;SHT31;57848;51.938;15.520;2023-08-06T10:33:07;15.47;97.15
70421;SHT31;57848;51.938;15.520;2023-08-06T10:35:46;15.55;97.38
70421;SHT31;57848;51.938;15.520;2023-08-06T10:38:25;15.57;97.29
70421;SHT31;57848;51.938;15.520;2023-08-06T10:43:28;15.54;97.09
70421;SHT31;57848;51.938;15.520;2023-08-06T10:45:55;15.57;96.96
70421;SHT31;57848;51.938;15.520;2023-08-06T10:48:36;15.57;96.76
70421;SHT31;57848;51.938;15.520;2023-08-06T10:51:03;15.55;96.89
70421;SHT31;57848;51.938;15.520;2023-08-06T10:53:29;15.58;96.49
70421;SHT31;57848;51.938;15.520;2023-08-06T10:55:55;15.57;96.69
70421;SHT31;57848;51.938;15.520;2023-08-06T10:58:20;15.53;96.67
70421;SHT31;57848;51.938;15.520;2023-08-06T11:00:46;15.55;96.81
70421;SHT31;57848;51.938;15.520;2023-08-06T11:03:11;15.55;97.08
70421;SHT31;57848;51.938;15.520;2023-08-06T11:05:37;15.48;97.03
70421;SHT31;57848;51.938;15.520;2023-08-06T11:08:02;15.51;97.21
70421;SHT31;57848;51.938;15.520;2023-08-06T11:10:28;15.50;97.57
70421;SHT31;57848;51.938;15.520;2023-08-06T11:12:53;15.50;97.32
70421;SHT31;57848;51.938;15.520;2023-08-06T11:15:20;15.54;97.56
70421;SHT31;57848;51.938;15.520;2023-08-06T11:17:46;15.55;97.15
70421;SHT31;57848;51.938;15.520;2023-08-06T11:20:12;15.51;96.96
70421;SHT31;57848;51.938;15.520;2023-08-06T11:22:38;15.54;97.43
70421;SHT31;57848;51.938;15.520;2023-08-06T11:25:05;15.48;97.30
70421;SHT31;57848;51.938;15.520;2023-08-06T11:27:31;15.53;97.42
70421;SHT31;57848;51.938;15.520;2023-08-06T11:29:56;15.44;97.26
70421;SHT31;57848;51.938;15.520;2023-08-06T11:32:21;15.48;97.21
70421;SHT31;57848;51.938;15.520;2023-08-06T11:34:47;15.48;97.28
70421;SHT31;57848;51.938;15.520;2023-08-06T11:37:12;15.41;97.54
70421;SHT31;57848;51.938;15.520;2023-08-06T11:39:38;15.43;97.16
70421;SHT31;57848;51.938;15.520;2023-08-06T11:42:05;15.44;97.19
70421;SHT31;57848;51.938;15.520;2023-08-06T11:44:32;15.39;97.43
70421;SHT31;57848;51.938;15.520;2023-08-06T11:47:00;15.40;97.38
70421;SHT31;57848;51.938;15.520;2023-08-06T11:49:48;15.40;97.44
70421;SHT31;57848;51.938;15.520;2023-08-06T11:54:41;15.37;97.99
70421;SHT31;57848;51.938;15.520;2023-08-06T11:57:07;15.36;98.22
70421;SHT31;57848;51.938;15.520;2023-08-06T11:59:33;15.37;98.02
70421;SHT31;57848;51.938;15.520;2023-08-06T12:02:02;15.31;97.67
70421;SHT31;57848;51.938;15.520;2023-08-06T12:04:28;15.30;97.97
70421;SHT31;57848;51.938;15.520;2023-08-06T12:06:53;15.33;98.15
70421;SHT31;57848;51.938;15.520;2023-08-06T12:09:18;15.31;97.89
70421;SHT31;57848;51.938;15.520;2023-08-06T12:11:44;15.37;98.26
70421;SHT31;57848;51.938;15.520;2023-08-06T12:14:09;15.40;97.82
70421;SHT31;57848;51.938;15.520;2023-08-06T12:16:34;15.46;97.84
70421;SHT31;57848;51.938;15.520;2023-08-06T12:19:01;15.41;97.73
70421;SHT31;57848;51.938;15.520;2023-08-06T12:21:26;15.40;98.04
70421;SHT31;57848;51.938;15.520;2023-08-06T12:23:52;15.43;97.81
70421;SHT31;57848;51.938;15.520;2023-08-06T12:26:17;15.40;97.70
70421;SHT31;57848;51.938;15.520;2023-08-06T12:28:42;15.34;98.28
70421;SHT31;57848;51.938;15.520;2023-08-06T12:31:07;15.40;98.17
70421;SHT31;57848;51.938;15.520;2023-08-06T12:33:33;15.41;98.08
70421;SHT31;57848;51.938;15.520;2023-08-06T12:35:58;15.44;97.85
70421;SHT31;57848;51.938;15.520;2023-08-06T12:38:24;15.43;97.97
70421;SHT31;57848;51.938;15.520;2023-08-06T12:40:49;15.34;97.64
70421;SHT31;57848;51.938;15.520;2023-08-06T12:43:14;15.33;97.86
70421;SHT31;57848;51.938;15.520;2023-08-06T12:45:40;15.29;97.61
70421;SHT31;57848;51.938;15.520;2023-08-06T12:48:06;15.36;98.00
70421;SHT31;57848;51.938;15.520;2023-08-06T12:50:31;15.34;97.66
70421;SHT31;57848;51.938;15.520;2023-08-06T12:52:57;15.37;98.31
70421;SHT31;57848;51.938;15.520;2023-08-06T12:55:23;15.40;98.46
70421;SHT31;57848;51.938;15.520;2023-08-06T12:57:48;15.46;97.93
70421;SHT31;57848;51.938;15.520;2023-08-06T13:00:14;15.39;97.71
70421;SHT31;57848;51.938;15.520;2023-08-06T13:02:39;15.41;98.28
70421;SHT31;57848;51.938;15.520;2023-08-06T13:05:04;15.53;97.69
70421;SHT31;57848;51.938;15.520;2023-08-06T13:07:31;15.40;97.85
70421;SHT31;57848;51.938;15.520;2023-08-06T13:09:56;15.37;97.88
70421;SHT31;57848;51.938;15.520;2023-08-06T13:12:22;15.33;97.96
70421;SHT31;57848;51.938;15.520;2023-08-06T13:14:48;15.31;97.86
70421;SHT31;57848;51.938;15.520;2023-08-06T13:17:13;15.33;98.16
70421;SHT31;57848;51.938;15.520;2023-08-06T13:19:39;15.36;98.10
70421;SHT31;57848;51.938;15.520;2023-08-06T13:22:04;15.20;97.53
70421;SHT31;57848;51.938;15.520;2023-08-06T13:24:32;15.24;98.18
70421;SHT31;57848;51.938;15.520;2023-08-06T13:26:57;15.20;97.89
70421;SHT31;57848;51.938;15.520;2023-08-06T13:29:25;15.16;98.32
70421;SHT31;57848;51.938;15.520;2023-08-06T13:31:50;15.14;98.19
70421;SHT31;57848;51.938;15.520;2023-08-06T13:34:15;15.13;98.04
70421;SHT31;57848;51.938;15.520;2023-08-06T13:36:42;15.11;98.10
70421;SHT31;57848;51.938;15.520;2023-08-06T13:39:07;15.09;98.49
70421;SHT31;57848;51.938;15.520;2023-08-06T13:41:32;15.07;98.33
70421;SHT31;57848;51.938;15.520;2023-08-06T13:43:58;15.10;98.47
70421;SHT31;57848;51.938;15.520;2023-08-06T13:46:23;14.98;98.50
70421;SHT31;57848;51.938;15.520;2023-08-06T13:48:49;14.96;98.08
70421;SHT31;57848;51.938;15.520;2023-08-06T13:51:18;15.00;99.00
70421;SHT31;57848;51.938;15.520;2023-08-06T13:53:43;15.07;99.12
70421;SHT31;57848;51.938;15.520;2023-08-06T13:56:09;15.13;99.12
70421;SHT31;57848;51.938;15.520;2023-08-06T13:58:35;15.13;98.80
70421;SHT31;57848;51.938;15.520;2023-08-06T14:01:01;15.10;99.17
70421;SHT31;57848;51.938;15.520;2023-08-06T14:03:26;15.14;98.94
70421;SHT31;57848;51.938;15.520;2023-08-06T14:05:51;15.06;98.71
70421;SHT31;57848;51.938;15.520;2023-08-06T14:08:18;14.96;98.58
70421;SHT31;57848;51.938;15.520;2023-08-06T14:10:44;15.00;99.34
70421;SHT31;57848;51.938;15.520;2023-08-06T14:13:09;14.88;99.99
70421;SHT31;57848;51.938;15.520;2023-08-06T14:15:35;14.89;99.99
70421;SHT31;57848;51.938;15.520;2023-08-06T14:18:01;14.85;99.99
70421;SHT31;57848;51.938;15.520;2023-08-06T14:20:26;14.88;99.99
70421;SHT31;57848;51.938;15.520;2023-08-06T14:22:51;14.83;99.99
70421;SHT31;57848;51.938;15.520;2023-08-06T14:25:17;14.86;99.99
70421;SHT31;57848;51.938;15.520;2023-08-06T14:27:42;14.88;99.99
70421;SHT31;57848;51.938;15.520;2023-08-06T14:30:08;14.92;99.99
70421;SHT31;57848;51.938;15.520;2023-08-06T14:32:33;14.98;99.99
70421;SHT31;57848;51.938;15.520;2023-08-06T14:34:58;14.98;99.99
70421;SHT31;57848;51.938;15.520;2023-08-06T14:37:24;15.09;99.99
70421;SHT31;57848;51.938;15.520;2023-08-06T14:39:50;15.14;99.61
70421;SHT31;57848;51.938;15.520;2023-08-06T14:42:15;15.14;99.66
70421;SHT31;57848;51.938;15.520;2023-08-06T14:44:40;15.17;99.44
70421;SHT31;57848;51.938;15.520;2023-08-06T14:47:06;15.22;99.28
70421;SHT31;57848;51.938;15.520;2023-08-06T14:49:31;15.26;99.57
70421;SHT31;57848;51.938;15.520;2023-08-06T14:51:56;15.27;99.58
70421;SHT31;57848;51.938;15.520;2023-08-06T14:54:25;15.31;99.58
70421;SHT31;57848;51.938;15.520;2023-08-06T14:56:51;15.34;99.10
70421;SHT31;57848;51.938;15.520;2023-08-06T14:59:16;15.36;99.19
70421;SHT31;57848;51.938;15.520;2023-08-06T15:01:41;15.36;99.37
70421;SHT31;57848;51.938;15.520;2023-08-06T15:04:07;15.44;99.11
70421;SHT31;57848;51.938;15.520;2023-08-06T15:06:32;15.43;99.40
70421;SHT31;57848;51.938;15.520;2023-08-06T15:08:57;15.43;99.99
70421;SHT31;57848;51.938;15.520;2023-08-06T15:11:26;15.23;99.99
70421;SHT31;57848;51.938;15.520;2023-08-06T15:13:51;15.19;99.99
70421;SHT31;57848;51.938;15.520;2023-08-06T15:16:17;15.17;99.99
70421;SHT31;57848;51.938;15.520;2023-08-06T15:18:42;15.13;99.99